map of DLA home
DLA - Airport
Location
City:  Douala, Littoral, Cameroon
Name:Douala International Airport
ICAO:FKKD
IATA:DLA

Details
Type:Airport (Aerodrome, Airfield)
Use:Public/Civil, Military, International (customs port of entry)
Latitude:400'22"N (4.006081)
Longitude:943'10"E (9.719481)
Datum:WGS 1984
Elevation:33 ft (10 m)
Variation:1.00W (WMM2015 magnetic declination)
0.12 annual change
Runways:1
Longest:9350 × 148 ft (2850 × 45 m), paved

Time
Time Zone:UTC+1
Local Time:

Weather
METAR:FKKD 160900Z VRB02KT 9999 BKN014 FEW017CB 29/25 Q1013 NOSIG
TAF:FKKD 160500Z 1606/1712 VRB04KT 9999 TS BKN013 FEW016CB PROB30
TEMPO 1608/1611 4000 TSRA
BECMG 1611/1612 NSW BKN016 FEW020CB
TEMPO 1618/1706 TS BKN013 FEW016CB

Related Locations
Nearby:
Farthest:CIS: 12310 mi / 19811 km
Kanton Island (Canton Island, Abariringa Island) [Canton Island Airport], P, KI

Find:

   beyond  
but within

Other Information
Maps:
NOTAMs:
Links:
Sources:

  
  • flag of Cameroon
  

Sectional Chart

Flight Planning
at skyvector.com

Satellite Image

Google Maps Satellite view

 

Copyright © 2004-2018 Karl L. Swartz. All rights reserved.
The Great Circle Mapper name and logo are trademarks of the Great Circle Mapper.
All other trademarks mentioned herein belong to their respective owners.
Please see credits for attibutions and further copyright information.

  Follow gcmap on Facebook Follow gcmap on Twitter Follow gcmap on Google+ GCmap on LinkedIn

hCard Microformat

Geo Microformat